Time;durP1;ratioP1;P1;durP2;ratioP2;P2;SDS_P1;SDS_P2;PMS_P1;PMS_P2;Temp;Humidity;BMP_temperature;BMP_pressure;BME280_temperature;BME280_humidity;BME280_pressure;Samples;Min_cycle;Max_cycle;Signal;HPM_P1;HPM_P2
2022/03/09 00:01:19;;;;;;;8.75;6.63;;;;;;;6.40;51.51;102145.34;4771675;29;121099;-77
2022/03/09 00:03:44;;;;;;;10.68;6.28;;;;;;;6.37;51.86;102146.88;4771213;29;121741;-77
2022/03/09 00:06:10;;;;;;;10.63;6.75;;;;;;;6.36;52.19;102147.25;4771263;29;119584;-76
2022/03/09 00:08:35;;;;;;;12.43;7.10;;;;;;;6.30;51.84;102156.97;4770989;29;120032;-77
2022/03/09 00:11:01;;;;;;;10.32;7.38;;;;;;;6.26;52.07;102151.50;4776000;29;120382;-77
2022/03/09 00:13:27;;;;;;;11.80;7.55;;;;;;;6.25;52.25;102162.81;4771904;29;120106;-77
2022/03/09 00:15:52;;;;;;;9.57;6.85;;;;;;;6.16;52.12;102146.81;4770762;29;120644;-77
2022/03/09 00:18:19;;;;;;;9.85;7.05;;;;;;;6.20;52.06;102163.19;4772521;29;119430;-76
2022/03/09 00:20:45;;;;;;;11.25;7.15;;;;;;;6.21;52.64;102170.97;4769587;29;119443;-77
2022/03/09 00:23:11;;;;;;;10.05;7.30;;;;;;;6.20;52.43;102169.41;4772409;29;119838;-77
2022/03/09 00:25:37;;;;;;;11.10;7.07;;;;;;;6.18;51.93;102171.75;4771255;29;120864;-77
2022/03/09 00:28:03;;;;;;;10.38;7.10;;;;;;;6.15;52.02;102176.00;4769382;29;121714;-76
2022/03/09 00:30:28;;;;;;;10.57;6.80;;;;;;;6.11;52.29;102177.91;4771298;29;120304;-77
2022/03/09 00:32:54;;;;;;;9.13;7.80;;;;;;;6.09;52.85;102185.69;4786902;29;120056;-76
2022/03/09 00:35:19;;;;;;;9.70;7.00;;;;;;;6.09;52.71;102180.25;4769707;29;120225;-77
2022/03/09 00:37:45;;;;;;;12.63;7.45;;;;;;;6.08;52.20;102189.59;4779753;29;120560;-76
2022/03/09 00:40:11;;;;;;;9.93;7.22;;;;;;;6.06;52.30;102182.97;4782047;29;119529;-76
2022/03/09 00:42:38;;;;;;;9.52;7.10;;;;;;;6.04;52.19;102182.56;4775056;29;121308;-76
2022/03/09 00:45:05;;;;;;;10.57;7.43;;;;;;;6.04;52.87;102177.91;4776350;29;119754;-76
2022/03/09 00:47:30;;;;;;;11.10;7.32;;;;;;;5.99;52.72;102164.66;4757633;29;122451;-77
2022/03/09 00:49:56;;;;;;;10.70;7.47;;;;;;;6.02;52.78;102174.00;4774604;29;120547;-77
2022/03/09 00:52:22;;;;;;;12.07;8.20;;;;;;;5.92;52.47;102161.91;4776856;29;119597;-76
2022/03/09 00:54:49;;;;;;;12.15;7.57;;;;;;;6.01;52.51;102184.13;4792329;29;120056;-76
2022/03/09 00:57:16;;;;;;;10.13;7.50;;;;;;;5.98;53.02;102173.19;4773724;29;119698;-76
2022/03/09 00:59:41;;;;;;;11.57;8.10;;;;;;;5.99;52.89;102191.88;4790455;29;119794;-77
2022/03/09 01:02:07;;;;;;;10.70;7.57;;;;;;;5.96;52.64;102187.22;4772542;29;122898;-77
2022/03/09 01:04:35;;;;;;;10.20;7.18;;;;;;;5.93;52.61;102185.25;4775369;29;119729;-77
2022/03/09 01:07:03;;;;;;;11.88;7.47;;;;;;;5.89;52.98;102176.22;4774733;29;121024;-76
2022/03/09 01:09:29;;;;;;;11.77;8.05;;;;;;;5.83;52.71;102183.19;4772820;29;121392;-77
2022/03/09 01:11:55;;;;;;;12.35;7.50;;;;;;;5.87;52.91;102178.56;4774531;29;119486;-77
2022/03/09 01:14:20;;;;;;;10.40;7.45;;;;;;;5.86;52.92;102177.00;4776458;29;119565;-77
2022/03/09 01:16:46;;;;;;;13.57;7.72;;;;;;;5.79;53.06;102166.06;4774095;29;119809;-77
2022/03/09 01:19:12;;;;;;;9.65;7.03;;;;;;;5.85;52.94;102172.72;4769755;29;120184;-76
2022/03/09 01:21:38;;;;;;;13.00;7.72;;;;;;;5.85;53.06;102178.94;4771968;29;120151;-77
2022/03/09 01:24:03;;;;;;;9.38;7.55;;;;;;;5.74;53.19;102158.25;4772723;29;120275;-76
2022/03/09 01:26:29;;;;;;;11.95;7.72;;;;;;;5.82;53.01;102182.41;4773785;29;120018;-77
2022/03/09 01:28:55;;;;;;;11.20;7.65;;;;;;;5.75;52.62;102165.28;4786551;29;119689;-77
2022/03/09 01:31:20;;;;;;;11.60;7.78;;;;;;;5.71;53.20;102165.25;4774154;29;120005;-76
2022/03/09 01:33:46;;;;;;;12.65;9.07;;;;;;;5.76;53.30;102177.72;4769056;29;119682;-76
2022/03/09 01:36:12;;;;;;;12.60;8.93;;;;;;;5.61;53.36;102159.72;4765609;29;119868;-76
2022/03/09 01:38:37;;;;;;;11.40;8.55;;;;;;;5.72;53.62;102175.00;4776040;29;120259;-77
2022/03/09 01:41:06;;;;;;;12.55;8.35;;;;;;;5.55;53.73;102138.31;4781461;29;120108;-77
2022/03/09 01:43:31;;;;;;;11.15;7.93;;;;;;;5.70;53.52;102160.19;4766414;29;120508;-77
2022/03/09 01:45:57;;;;;;;13.60;8.25;;;;;;;5.54;52.89;102136.75;4767772;29;120375;-77
2022/03/09 01:48:23;;;;;;;15.57;8.90;;;;;;;5.48;53.01;102135.56;4768800;29;120100;-76
2022/03/09 01:50:48;;;;;;;14.63;9.20;;;;;;;5.57;53.52;102137.94;4767428;29;119776;-77
2022/03/09 01:53:17;;;;;;;13.88;8.45;;;;;;;5.60;53.48;102145.34;4768759;29;120722;-76
2022/03/09 01:55:43;;;;;;;14.48;9.00;;;;;;;5.58;53.47;102152.34;4765560;29;119752;-77
2022/03/09 01:58:09;;;;;;;12.00;8.95;;;;;;;5.53;53.78;102145.31;4771105;29;120136;-77
2022/03/09 02:00:37;;;;;;;12.95;8.45;;;;;;;5.38;53.25;102122.66;4771186;29;119910;-77
2022/03/09 02:03:03;;;;;;;14.13;9.40;;;;;;;5.48;53.70;102146.44;4781070;29;120758;-77
2022/03/09 02:05:29;;;;;;;12.75;8.73;;;;;;;5.55;53.67;102148.44;4771066;29;120154;-76
2022/03/09 02:10:41;;;;;;;13.35;8.65;;;;;;;5.51;53.66;102151.13;4765456;29;119358;-76
2022/03/09 02:13:08;;;;;;;11.68;8.25;;;;;;;5.37;53.73;102125.75;4769934;29;119863;-76
2022/03/09 02:15:33;;;;;;;12.00;7.82;;;;;;;5.49;53.57;102144.50;4768101;29;119992;-77
2022/03/09 02:18:00;;;;;;;12.90;8.85;;;;;;;5.32;53.13;102124.19;4765352;29;119762;-77
2022/03/09 02:20:26;;;;;;;10.50;8.10;;;;;;;5.42;52.80;102145.22;4775747;29;120123;-77
2022/03/09 02:22:57;;;;;;;11.07;8.15;;;;;;;5.21;53.31;102112.47;4775940;29;119464;-77
2022/03/09 02:25:23;;;;;;;13.48;8.95;;;;;;;5.37;53.11;102140.16;4766801;29;121883;-77
2022/03/09 02:27:49;;;;;;;14.90;9.18;;;;;;;5.33;53.23;102133.91;4771094;29;119727;-76
2022/03/09 02:30:17;;;;;;;15.40;9.10;;;;;;;5.26;53.37;102131.16;4776857;29;119774;-77
2022/03/09 02:32:48;;;;;;;11.18;8.63;;;;;;;5.28;53.49;102125.31;4776418;29;119858;-77
2022/03/09 02:35:17;;;;;;;12.35;9.05;;;;;;;5.27;53.60;102129.97;4773209;29;122566;-77
2022/03/09 02:37:43;;;;;;;12.35;8.68;;;;;;;5.26;53.57;102127.63;4766386;29;121194;-77
2022/03/09 02:40:12;;;;;;;12.43;8.63;;;;;;;5.27;53.94;102135.44;4789030;29;119676;-77
2022/03/09 02:42:38;;;;;;;13.30;9.68;;;;;;;5.27;53.96;102135.44;4779076;29;120161;-77
2022/03/09 02:45:05;;;;;;;13.45;8.95;;;;;;;5.26;53.57;102136.59;4765837;29;119663;-77
2022/03/09 02:47:31;;;;;;;15.25;9.23;;;;;;;5.10;53.78;102117.81;4772248;29;120609;-77
2022/03/09 02:49:57;;;;;;;13.45;8.68;;;;;;;5.21;53.95;102135.00;4770759;29;119766;-76
2022/03/09 02:52:25;;;;;;;13.27;8.93;;;;;;;5.21;54.42;102136.94;4772262;29;119949;-78
2022/03/09 02:54:56;;;;;;;12.60;8.50;;;;;;;5.23;54.35;102140.06;4777433;29;121186;-77
2022/03/09 02:57:21;;;;;;;14.18;9.13;;;;;;;5.21;54.15;102143.16;4773297;29;119536;-78
2022/03/09 02:59:49;;;;;;;12.25;8.15;;;;;;;5.20;54.45;102135.34;4776913;29;119498;-78
2022/03/09 03:02:14;;;;;;;13.23;9.13;;;;;;;5.08;54.26;102114.69;4776494;29;120222;-77
2022/03/09 03:04:41;;;;;;;14.05;9.27;;;;;;;5.16;54.35;102132.59;4781071;29;120050;-77
2022/03/09 03:07:07;;;;;;;11.98;8.70;;;;;;;5.15;54.21;102127.53;4772575;29;120059;-77
2022/03/09 03:09:32;;;;;;;11.70;8.65;;;;;;;5.13;54.43;102127.16;4776636;29;119695;-77
2022/03/09 03:11:58;;;;;;;11.23;8.48;;;;;;;4.99;54.15;102108.03;4764946;29;119481;-77
2022/03/09 03:14:23;;;;;;;12.65;9.13;;;;;;;4.91;54.29;102097.06;4765816;29;120132;-77
2022/03/09 03:16:49;;;;;;;14.02;8.80;;;;;;;4.96;54.44;102108.75;4772320;29;120137;-77
2022/03/09 03:19:14;;;;;;;11.98;8.48;;;;;;;5.03;54.42;102117.75;4777306;29;119440;-77
2022/03/09 03:21:40;;;;;;;13.18;8.98;;;;;;;4.99;54.27;102124.34;4770990;29;120439;-78
2022/03/09 03:24:06;;;;;;;13.02;8.77;;;;;;;4.94;54.86;102111.84;4775370;29;120052;-77
2022/03/09 03:26:31;;;;;;;13.75;9.50;;;;;;;5.01;54.96;102119.31;4778019;29;119825;-77
2022/03/09 03:28:58;;;;;;;13.90;10.00;;;;;;;5.01;54.56;102122.00;4776697;29;120905;-77
2022/03/09 03:31:24;;;;;;;13.25;8.90;;;;;;;5.00;54.46;102110.34;4774066;29;119675;-77
2022/03/09 03:33:50;;;;;;;11.38;8.68;;;;;;;5.02;54.61;102112.69;4777211;29;119706;-77
2022/03/09 03:36:16;;;;;;;13.65;9.45;;;;;;;4.86;54.16;102083.81;4779165;29;119767;-77
2022/03/09 03:38:42;;;;;;;13.52;9.15;;;;;;;5.00;54.64;102104.91;4776783;29;120112;-77
2022/03/09 03:41:08;;;;;;;14.00;9.32;;;;;;;4.97;54.56;102092.06;4780062;29;119959;-77
2022/03/09 03:43:34;;;;;;;13.20;9.45;;;;;;;4.96;54.42;102106.03;4779977;29;120083;-77
2022/03/09 03:45:59;;;;;;;15.02;10.48;;;;;;;4.98;54.43;102103.75;4780058;29;120294;-77
2022/03/09 03:48:25;;;;;;;13.75;9.20;;;;;;;4.97;54.61;102100.25;4782379;29;123140;-77
2022/03/09 03:50:50;;;;;;;13.38;9.68;;;;;;;4.87;54.40;102087.31;4777318;29;119761;-78
2022/03/09 03:53:16;;;;;;;12.75;9.88;;;;;;;4.97;54.39;102110.31;4779097;29;120159;-78
2022/03/09 03:55:44;;;;;;;12.98;9.93;;;;;;;4.69;54.55;102068.13;4779666;29;119618;-77
2022/03/09 03:58:10;;;;;;;14.60;9.88;;;;;;;4.96;54.30;102108.75;4779062;29;119867;-77
2022/03/09 04:00:36;;;;;;;12.70;8.07;;;;;;;4.94;54.32;102107.19;4776961;29;120097;-76
2022/03/09 04:03:01;;;;;;;12.95;9.25;;;;;;;4.97;53.92;102118.47;4781395;29;119494;-76
2022/03/09 04:05:28;;;;;;;14.80;9.80;;;;;;;4.94;53.89;102115.34;4778150;29;119313;-77
2022/03/09 04:07:54;;;;;;;14.43;9.85;;;;;;;4.88;54.37;102107.91;4774568;29;120522;-77
2022/03/09 04:10:19;;;;;;;13.52;9.85;;;;;;;4.69;54.37;102089.09;4782161;29;119955;-77
2022/03/09 04:12:45;;;;;;;15.23;10.55;;;;;;;4.87;54.55;102112.56;4780923;29;120269;-77
2022/03/09 04:15:11;;;;;;;17.73;10.02;;;;;;;4.69;54.32;102081.72;4778340;29;119364;-77
2022/03/09 04:17:41;;;;;;;13.35;9.82;;;;;;;4.88;54.54;102102.47;4778118;29;119529;-77
2022/03/09 04:20:07;;;;;;;13.45;10.00;;;;;;;4.86;54.40;102105.56;4793393;29;119734;-77
2022/03/09 04:22:32;;;;;;;13.63;10.02;;;;;;;4.85;54.30;102114.09;4779220;29;119662;-77
2022/03/09 04:24:59;;;;;;;17.20;9.93;;;;;;;4.58;54.57;102067.28;4777978;29;120792;-77
2022/03/09 04:27:26;;;;;;;15.43;10.30;;;;;;;4.81;54.30;102102.44;4776820;29;120753;-77
2022/03/09 04:29:52;;;;;;;18.15;10.65;;;;;;;4.77;54.57;102088.03;4782093;29;119767;-76
2022/03/09 04:32:17;;;;;;;15.18;10.07;;;;;;;4.78;54.70;102089.59;4775512;29;120595;-77
2022/03/09 04:34:43;;;;;;;15.23;9.80;;;;;;;4.78;54.79;102095.81;4777841;29;119865;-77
2022/03/09 04:37:09;;;;;;;16.85;10.75;;;;;;;4.75;54.77;102093.84;4776619;29;119543;-77
2022/03/09 04:39:34;;;;;;;16.75;9.82;;;;;;;4.79;54.57;102100.09;4776065;29;119760;-77
2022/03/09 04:42:00;;;;;;;13.93;9.80;;;;;;;4.77;54.88;102102.41;4776812;29;120722;-77
2022/03/09 04:44:25;;;;;;;16.58;9.57;;;;;;;4.75;54.81;102099.28;4778868;29;119525;-78
2022/03/09 04:46:51;;;;;;;14.77;9.13;;;;;;;4.78;54.36;102105.91;4776693;29;121099;-77
2022/03/09 04:49:17;;;;;;;17.83;10.02;;;;;;;4.70;54.50;102096.09;4777649;29;119848;-77
2022/03/09 04:51:42;;;;;;;14.30;9.65;;;;;;;4.45;54.70;102063.25;4782862;29;119759;-77
2022/03/09 04:54:08;;;;;;;15.63;10.38;;;;;;;4.72;54.31;102110.09;4760578;29;119404;-77
2022/03/09 04:56:34;;;;;;;15.75;10.27;;;;;;;4.57;54.72;102088.25;4778274;29;119914;-77
2022/03/09 04:58:59;;;;;;;14.73;11.23;;;;;;;4.74;54.54;102107.81;4776972;29;120270;-77
2022/03/09 05:01:25;;;;;;;14.20;10.25;;;;;;;4.55;54.79;102079.69;4778329;29;119685;-77
2022/03/09 05:03:50;;;;;;;17.88;11.23;;;;;;;4.74;55.38;102108.59;4773464;29;119737;-77
2022/03/09 05:06:16;;;;;;;16.30;10.10;;;;;;;4.75;55.48;102115.59;4773718;29;121068;-77
2022/03/09 05:08:42;;;;;;;16.80;10.75;;;;;;;4.65;55.85;102099.94;4780390;29;119615;-77
2022/03/09 05:11:07;;;;;;;15.10;10.65;;;;;;;4.77;55.13;102115.22;4778332;29;119577;-77
2022/03/09 05:13:33;;;;;;;17.35;10.40;;;;;;;4.41;55.41;102052.38;4781062;29;120602;-77
2022/03/09 05:15:59;;;;;;;16.40;11.30;;;;;;;4.77;54.93;102101.63;4778084;29;119984;-77
2022/03/09 05:18:24;;;;;;;18.88;11.57;;;;;;;4.73;54.92;102093.44;4763025;29;122949;-77
2022/03/09 05:20:50;;;;;;;16.35;10.70;;;;;;;4.76;55.63;102109.00;4778202;29;121432;-77
2022/03/09 05:23:16;;;;;;;18.58;11.15;;;;;;;4.75;55.38;102110.16;4777740;29;119726;-77
2022/03/09 05:25:41;;;;;;;15.82;10.95;;;;;;;4.73;54.92;102112.47;4774648;29;119739;-77
2022/03/09 05:28:07;;;;;;;16.15;10.35;;;;;;;4.72;54.74;102119.03;4775396;29;119788;-77
2022/03/09 05:30:32;;;;;;;16.85;10.50;;;;;;;4.69;55.50;102122.50;4769690;29;122007;-77
2022/03/09 05:32:58;;;;;;;14.27;10.35;;;;;;;4.62;55.44;102119.72;4793403;29;120370;-77
2022/03/09 05:35:24;;;;;;;15.80;10.90;;;;;;;4.69;55.10;102114.34;4780458;29;119620;-76
2022/03/09 05:37:49;;;;;;;17.10;11.05;;;;;;;4.68;55.10;102118.22;4776712;29;122928;-77
2022/03/09 05:40:17;;;;;;;18.90;11.55;;;;;;;4.66;55.15;102123.25;4777138;29;119623;-77
2022/03/09 05:42:44;;;;;;;18.08;12.32;;;;;;;4.65;55.14;102121.69;4773296;29;121061;-77
2022/03/09 05:45:10;;;;;;;20.75;12.30;;;;;;;4.48;55.04;102100.56;4778270;29;119839;-76
2022/03/09 05:47:36;;;;;;;18.67;10.32;;;;;;;4.41;54.66;102089.63;4778349;29;119390;-76
2022/03/09 05:50:03;;;;;;;15.65;10.75;;;;;;;4.52;55.18;102114.97;4778535;29;119524;-77
2022/03/09 05:52:29;;;;;;;16.42;10.32;;;;;;;4.59;55.21;102134.84;4777025;29;120229;-77
2022/03/09 05:54:54;;;;;;;14.95;10.63;;;;;;;4.57;54.81;102134.44;4778645;29;119611;-76
2022/03/09 05:57:20;;;;;;;17.73;11.30;;;;;;;4.51;54.82;102122.34;4783118;29;119391;-76
2022/03/09 05:59:46;;;;;;;16.65;10.68;;;;;;;4.59;55.05;102129.41;4773200;29;119416;-76
2022/03/09 06:02:12;;;;;;;19.35;10.40;;;;;;;4.54;54.93;102126.25;4774653;29;119656;-76
2022/03/09 06:04:39;;;;;;;15.90;10.43;;;;;;;4.60;55.09;102135.63;4760232;29;120007;-76
2022/03/09 06:07:05;;;;;;;19.13;11.35;;;;;;;4.52;55.30;102117.69;4777587;29;120238;-76
2022/03/09 06:09:30;;;;;;;18.77;11.25;;;;;;;4.60;54.91;102141.06;4769398;29;123587;-76
2022/03/09 06:11:56;;;;;;;15.98;11.07;;;;;;;4.46;55.32;102117.22;4779030;29;120105;-76
2022/03/09 06:14:22;;;;;;;16.35;10.95;;;;;;;4.63;55.44;102140.31;4778306;29;119368;-76
2022/03/09 06:16:48;;;;;;;16.05;10.75;;;;;;;4.55;55.44;102125.09;4779946;29;119654;-77
2022/03/09 06:19:15;;;;;;;17.17;10.98;;;;;;;4.70;55.53;102139.59;4778177;29;119308;-77
2022/03/09 06:21:41;;;;;;;18.52;11.05;;;;;;;4.72;55.29;102140.78;4779438;29;119697;-77
2022/03/09 06:24:07;;;;;;;19.08;10.38;;;;;;;4.71;55.72;102139.22;4771695;29;119792;-76
2022/03/09 06:26:32;;;;;;;15.20;10.40;;;;;;;4.77;55.58;102151.34;4779926;29;120622;-77
2022/03/09 06:28:58;;;;;;;16.88;11.55;;;;;;;4.79;55.71;102150.97;4760533;29;120247;-77
2022/03/09 06:31:24;;;;;;;17.10;11.05;;;;;;;4.83;55.96;102140.91;4775659;29;120037;-79
2022/03/09 06:33:50;;;;;;;17.90;10.93;;;;;;;4.60;56.08;102098.38;4777061;29;120049;-77
2022/03/09 06:36:16;;;;;;;18.23;11.30;;;;;;;4.81;55.96;102137.78;4777459;29;120562;-77
2022/03/09 06:38:42;;;;;;;18.75;11.75;;;;;;;4.96;57.01;102146.81;4780866;29;122529;-77
2022/03/09 06:41:08;;;;;;;22.98;15.60;;;;;;;5.05;56.76;102155.47;4776191;29;123094;-77
2022/03/09 06:43:33;;;;;;;22.98;13.60;;;;;;;5.10;56.91;102146.94;4776707;29;120909;-77
2022/03/09 06:45:59;;;;;;;24.13;12.32;;;;;;;5.05;56.80;102139.13;4776610;29;121092;-77
2022/03/09 06:48:25;;;;;;;17.00;11.60;;;;;;;5.25;57.41;102162.22;4776235;29;119365;-77
2022/03/09 06:50:50;;;;;;;17.38;11.93;;;;;;;5.18;57.76;102134.94;4775997;29;121781;-77
2022/03/09 06:53:16;;;;;;;19.58;13.52;;;;;;;5.42;57.93;102156.09;4777970;29;119327;-77
2022/03/09 06:55:41;;;;;;;18.05;12.10;;;;;;;5.52;57.69;102165.53;4775927;29;119886;-77
2022/03/09 06:58:07;;;;;;;17.88;11.13;;;;;;;5.59;57.85;102165.56;4774846;29;119889;-77
2022/03/09 07:00:32;;;;;;;16.70;10.95;;;;;;;5.59;57.93;102148.44;4780648;29;119933;-76
2022/03/09 07:02:59;;;;;;;15.43;10.93;;;;;;;5.81;57.60;102164.53;4776695;29;120242;-77
2022/03/09 07:05:25;;;;;;;17.70;11.70;;;;;;;5.92;57.74;102152.94;4751421;29;120043;-77
2022/03/09 07:07:51;;;;;;;17.80;12.05;;;;;;;6.00;57.89;102160.75;4775941;29;119818;-77
2022/03/09 07:10:17;;;;;;;17.05;11.45;;;;;;;6.08;57.62;102162.34;4781591;29;120623;-77
2022/03/09 07:12:45;;;;;;;16.83;11.30;;;;;;;6.17;57.15;102170.19;4779440;29;119704;-77
2022/03/09 07:15:12;;;;;;;15.80;11.25;;;;;;;6.24;56.96;102167.47;4781774;29;120038;-78
2022/03/09 07:17:39;;;;;;;18.85;10.82;;;;;;;6.20;57.35;102141.38;4781942;29;119832;-77
2022/03/09 07:20:05;;;;;;;17.13;10.88;;;;;;;6.25;57.09;102147.22;4779889;29;120259;-77
2022/03/09 07:22:31;;;;;;;15.63;11.10;;;;;;;6.29;56.66;102148.03;4785454;29;119695;-77
2022/03/09 07:24:57;;;;;;;17.02;11.50;;;;;;;6.56;56.53;102181.19;4783879;29;119965;-77
2022/03/09 07:27:22;;;;;;;16.70;10.15;;;;;;;6.63;56.13;102189.41;4777790;29;119876;-77
2022/03/09 07:29:48;;;;;;;17.30;10.45;;;;;;;6.69;56.25;102184.34;4783109;29;120296;-77
2022/03/09 07:32:14;;;;;;;17.38;10.75;;;;;;;6.75;56.44;102178.13;4781910;29;119675;-77
2022/03/09 07:34:40;;;;;;;16.35;10.50;;;;;;;6.81;56.86;102169.53;4780825;29;119497;-77
2022/03/09 07:37:06;;;;;;;20.23;11.23;;;;;;;6.94;56.74;102185.16;4777278;29;121265;-77
2022/03/09 07:39:32;;;;;;;16.02;11.38;;;;;;;7.00;56.80;102186.31;4766504;29;119834;-78
2022/03/09 07:41:58;;;;;;;16.08;10.70;;;;;;;7.04;56.54;102178.91;4782034;29;120273;-78
2022/03/09 07:44:24;;;;;;;14.85;10.52;;;;;;;7.16;56.42;102188.69;4788109;29;120076;-77
2022/03/09 07:46:50;;;;;;;15.95;10.88;;;;;;;7.21;56.67;102193.75;4774199;29;122270;-77
2022/03/09 07:49:17;;;;;;;16.15;10.57;;;;;;;7.30;56.84;102185.94;4779145;29;120211;-77
2022/03/09 07:51:43;;;;;;;17.92;10.93;;;;;;;7.37;56.34;102199.59;4782873;29;120208;-77
2022/03/09 07:54:09;;;;;;;14.93;9.85;;;;;;;7.46;56.37;102201.16;4783440;29;120048;-77
2022/03/09 07:56:36;;;;;;;14.88;10.30;;;;;;;7.54;56.28;102205.41;4780113;29;119843;-77
2022/03/09 07:59:03;;;;;;;14.30;9.80;;;;;;;7.60;55.59;102207.38;4781155;29;119558;-77
2022/03/09 08:01:28;;;;;;;12.65;9.70;;;;;;;7.68;55.69;102206.19;4781698;29;119655;-77
2022/03/09 08:03:54;;;;;;;13.55;9.65;;;;;;;7.79;55.49;102211.63;4795436;29;119835;-77
2022/03/09 08:06:20;;;;;;;13.98;9.73;;;;;;;7.90;54.45;102222.53;4781177;29;122519;-77
2022/03/09 08:08:46;;;;;;;12.90;9.27;;;;;;;7.88;53.68;102203.81;4777355;29;121796;-77
2022/03/09 08:11:12;;;;;;;14.07;9.70;;;;;;;8.12;54.65;102228.72;4781285;29;120167;-78
2022/03/09 08:13:38;;;;;;;12.88;9.05;;;;;;;8.25;53.96;102227.09;4778140;29;121516;-77
2022/03/09 08:16:03;;;;;;;14.10;9.25;;;;;;;8.33;54.55;102223.19;4781455;29;119829;-77
2022/03/09 08:18:29;;;;;;;12.73;9.38;;;;;;;8.47;55.06;102228.59;4778192;29;119504;-77
2022/03/09 08:20:55;;;;;;;10.85;8.30;;;;;;;8.60;53.12;102231.69;4779223;29;119744;-77
2022/03/09 08:23:22;;;;;;;15.25;9.20;;;;;;;8.69;53.92;102210.13;4778569;29;120214;-77
2022/03/09 08:25:49;;;;;;;12.88;8.88;;;;;;;8.83;52.02;102222.94;4779311;29;119644;-77
2022/03/09 08:28:16;;;;;;;12.00;8.50;;;;;;;8.90;51.68;102211.94;4768897;29;119770;-77
2022/03/09 08:30:41;;;;;;;14.38;8.55;;;;;;;9.06;52.62;102230.63;4775244;29;119487;-77
2022/03/09 08:33:09;;;;;;;12.88;9.35;;;;;;;9.16;52.69;102224.28;4774246;29;120413;-78
2022/03/09 08:35:34;;;;;;;11.00;8.55;;;;;;;9.27;53.68;102229.69;4778481;29;120327;-77
2022/03/09 08:38:00;;;;;;;15.25;8.88;;;;;;;9.37;52.49;102226.06;4777338;29;119454;-77
2022/03/09 08:40:26;;;;;;;14.48;8.27;;;;;;;9.30;51.11;102202.28;4769842;29;120676;-77
2022/03/09 08:42:51;;;;;;;11.20;7.75;;;;;;;9.34;51.22;102200.28;4780246;29;119649;-77
2022/03/09 08:45:17;;;;;;;11.27;7.75;;;;;;;9.58;51.19;102217.66;4776589;29;119732;-77
2022/03/09 08:47:43;;;;;;;10.30;7.63;;;;;;;9.66;49.27;102218.38;4780382;29;120305;-77
2022/03/09 08:50:09;;;;;;;14.40;7.85;;;;;;;9.66;48.80;102219.16;4779825;29;120731;-77
2022/03/09 08:52:35;;;;;;;12.32;7.25;;;;;;;9.73;49.10;102216.34;4778550;29;119736;-77
2022/03/09 08:55:01;;;;;;;11.15;7.78;;;;;;;9.82;48.58;102218.59;4762177;29;120232;-77
2022/03/09 08:57:26;;;;;;;12.80;7.82;;;;;;;9.85;49.52;102218.56;4775718;29;121033;-78
2022/03/09 08:59:52;;;;;;;10.30;7.30;;;;;;;9.93;48.81;102222.00;4776330;29;119774;-77
2022/03/09 09:02:18;;;;;;;12.50;7.97;;;;;;;9.99;49.46;102219.59;4777197;29;120184;-78
2022/03/09 09:04:43;;;;;;;11.90;7.00;;;;;;;9.92;48.18;102206.72;4780148;29;119556;-77
2022/03/09 09:07:09;;;;;;;12.73;7.28;;;;;;;10.07;48.73;102216.38;4762352;29;119764;-77
2022/03/09 09:09:34;;;;;;;11.30;7.68;;;;;;;10.18;49.53;102223.72;4780292;29;120282;-77
2022/03/09 09:12:01;;;;;;;14.13;7.80;;;;;;;10.26;50.24;102223.22;4779161;29;119404;-77
2022/03/09 09:14:27;;;;;;;10.02;6.93;;;;;;;10.19;50.12;102197.84;4773887;29;120094;-78
2022/03/09 09:16:53;;;;;;;11.07;7.95;;;;;;;10.45;51.15;102227.31;4778363;29;120585;-77
2022/03/09 09:19:18;;;;;;;13.32;8.23;;;;;;;10.52;50.54;102229.97;4776630;29;119824;-77
2022/03/09 09:21:46;;;;;;;11.02;7.45;;;;;;;10.50;48.92;102232.34;4777863;29;120149;-77
2022/03/09 09:24:11;;;;;;;10.43;6.53;;;;;;;10.56;47.20;102236.16;4778602;29;120087;-77
2022/03/09 09:26:37;;;;;;;11.02;7.03;;;;;;;10.71;49.08;102234.03;4775827;29;119565;-77
2022/03/09 09:29:02;;;;;;;10.32;7.00;;;;;;;10.67;48.88;102227.81;4761093;29;119707;-77
2022/03/09 09:31:28;;;;;;;12.27;7.15;;;;;;;10.74;46.69;102231.22;4763267;29;119630;-77
2022/03/09 09:33:54;;;;;;;11.82;7.03;;;;;;;10.65;46.81;102210.97;4770554;29;119749;-77
2022/03/09 09:36:20;;;;;;;11.10;7.13;;;;;;;10.94;47.02;102242.31;4771661;29;119668;-77
2022/03/09 09:38:45;;;;;;;11.00;7.55;;;;;;;11.01;47.90;102244.16;4776951;29;120384;-77
2022/03/09 09:41:18;;;;;;;10.10;6.68;;;;;;;10.86;46.72;102213.41;4776576;29;120271;-77
2022/03/09 09:43:45;;;;;;;10.23;7.30;;;;;;;11.10;46.89;102238.16;4777473;29;120288;-77
2022/03/09 09:46:15;;;;;;;14.60;7.45;;;;;;;10.96;47.87;102212.47;4779793;29;119514;-77
2022/03/09 09:48:42;;;;;;;11.85;7.85;;;;;;;11.19;48.29;102230.94;4778750;29;120163;-77
2022/03/09 09:51:08;;;;;;;10.15;7.28;;;;;;;11.24;47.53;102232.44;4770285;29;120799;-78
2022/03/09 09:53:35;;;;;;;14.30;8.10;;;;;;;11.30;47.49;102230.75;4779809;29;119966;-77
2022/03/09 09:56:01;;;;;;;12.38;6.93;;;;;;;11.33;47.16;102227.19;4779944;29;119835;-78
2022/03/09 09:58:28;;;;;;;12.35;7.75;;;;;;;11.24;47.94;102208.50;4771753;29;119623;-77
2022/03/09 10:00:57;;;;;;;12.30;6.90;;;;;;;11.46;46.46;102227.38;4765324;29;120132;-77
2022/03/09 10:03:22;;;;;;;9.98;7.28;;;;;;;11.47;46.89;102229.69;4766422;29;120505;-77
2022/03/09 10:05:50;;;;;;;10.23;7.35;;;;;;;11.47;47.87;102226.19;4767376;29;122593;-78
2022/03/09 10:08:18;;;;;;;12.60;6.82;;;;;;;11.54;46.04;102215.06;4781058;29;121385;-76
2022/03/09 10:11:01;;;;;;;9.68;6.90;;;;;;;11.58;47.19;102216.53;4758675;29;120448;-77
2022/03/09 10:13:33;;;;;;;12.20;7.18;;;;;;;11.61;46.08;102212.97;4769029;29;119659;-77
2022/03/09 10:16:19;;;;;;;10.93;7.00;;;;;;;11.65;47.05;102219.19;4773913;29;119859;-77
2022/03/09 10:18:54;;;;;;;13.55;6.93;;;;;;;11.69;45.15;102214.38;4769367;29;120603;-77
2022/03/09 10:21:23;;;;;;;9.50;6.55;;;;;;;11.73;44.24;102219.03;4767663;29;120046;-77
2022/03/09 10:24:06;;;;;;;10.75;6.90;;;;;;;11.75;46.15;102213.91;4776584;29;119484;-77
2022/03/09 10:26:34;;;;;;;9.10;6.13;;;;;;;11.84;43.14;102219.66;4770537;29;120882;-77
2022/03/09 10:29:09;;;;;;;8.05;6.47;;;;;;;11.89;44.20;102213.66;4766757;29;119776;-77
2022/03/09 10:31:38;;;;;;;8.88;6.05;;;;;;;11.91;42.86;102219.53;4763748;29;119454;-77
2022/03/09 10:34:04;;;;;;;9.02;6.05;;;;;;;11.95;41.27;102220.22;4764553;29;120587;-77
2022/03/09 10:36:30;;;;;;;9.50;6.45;;;;;;;11.95;41.63;102220.22;4756005;29;124357;-77
2022/03/09 10:39:12;;;;;;;10.55;6.68;;;;;;;11.87;41.29;102199.56;4764071;29;120132;-78
2022/03/09 10:41:37;;;;;;;10.50;6.32;;;;;;;12.08;42.08;102225.88;4778966;29;120689;-78
2022/03/09 10:44:03;;;;;;;12.15;6.45;;;;;;;12.08;41.81;102220.38;4767303;29;119432;-78
2022/03/09 10:46:41;;;;;;;12.85;6.55;;;;;;;11.99;41.54;102202.44;4764421;29;119451;-77
2022/03/09 10:49:08;;;;;;;11.20;6.03;;;;;;;12.20;42.40;102222.47;4765225;29;120862;-77
2022/03/09 10:51:36;;;;;;;10.40;6.95;;;;;;;12.25;40.48;102224.72;4769022;29;120570;-78
2022/03/09 10:54:16;;;;;;;9.25;6.10;;;;;;;12.28;42.30;102230.16;4773442;29;122318;-77
2022/03/09 10:56:43;;;;;;;12.02;6.63;;;;;;;12.16;41.71;102200.56;4774130;29;120814;-77
2022/03/09 10:59:15;;;;;;;9.55;6.38;;;;;;;12.31;39.29;102227.78;4776796;29;120024;-78
2022/03/09 11:01:42;;;;;;;9.70;6.20;;;;;;;12.32;40.03;102226.59;4775020;29;119977;-78
2022/03/09 11:04:16;;;;;;;8.65;6.40;;;;;;;12.37;40.92;102226.06;4773778;29;119904;-77
2022/03/09 11:06:46;;;;;;;;;;;;;;;12.35;40.55;102223.75;4775163;29;119982;-77
2022/03/09 11:09:17;;;;;;;9.95;6.65;;;;;;;12.29;41.50;102215.19;4771883;29;121497;-77
2022/03/09 11:11:46;;;;;;;9.55;6.53;;;;;;;12.43;40.78;102236.16;4789800;29;120026;-77
2022/03/09 11:14:13;;;;;;;10.75;6.68;;;;;;;12.38;41.75;102213.88;4757905;29;120102;-77